Time;durP1;ratioP1;P1;durP2;ratioP2;P2;SDS_P1;SDS_P2;PMS_P1;PMS_P2;Temp;Humidity;BMP_temperature;BMP_pressure;BME280_temperature;BME280_humidity;BME280_pressure;Samples;Min_cycle;Max_cycle;Signal;HPM_P1;HPM_P2
2021/08/20 00:01:51;;;;;;;18.92;9.75;;;;;;;14.31;87.15;101676.34;4971136;28;20037;-69
2021/08/20 00:04:17;;;;;;;19.67;9.68;;;;;;;14.31;87.38;101676.34;4971574;28;20391;-69
2021/08/20 00:06:42;;;;;;;19.67;9.73;;;;;;;14.30;87.56;101682.53;4971432;28;20461;-70
2021/08/20 00:09:09;;;;;;;19.75;9.20;;;;;;;14.30;87.92;101668.47;4971152;28;20411;-69
2021/08/20 00:11:37;;;;;;;18.42;9.38;;;;;;;14.31;88.20;101668.44;4977315;28;20054;-68
2021/08/20 00:14:03;;;;;;;18.92;9.93;;;;;;;14.32;88.39;101662.22;4970099;28;20373;-67
2021/08/20 00:16:28;;;;;;;17.65;10.02;;;;;;;14.35;88.68;101666.50;4969716;28;20034;-67
2021/08/20 00:18:53;;;;;;;19.02;10.15;;;;;;;14.33;88.64;101661.31;4970985;28;20081;-70
2021/08/20 00:21:19;;;;;;;19.15;10.57;;;;;;;14.31;89.24;101657.88;4971164;28;20763;-71
2021/08/20 00:23:44;;;;;;;24.10;10.85;;;;;;;14.30;89.59;101660.53;4971053;28;20022;-69
2021/08/20 00:26:09;;;;;;;20.95;10.52;;;;;;;14.29;89.35;101650.91;4970801;28;20023;-68
2021/08/20 00:28:35;;;;;;;20.00;10.25;;;;;;;14.29;89.44;101653.53;4969671;28;20086;-69
2021/08/20 00:31:00;;;;;;;20.27;10.73;;;;;;;14.25;89.77;101652.81;4970902;28;20058;-68
2021/08/20 00:33:25;;;;;;;18.50;10.88;;;;;;;14.24;89.84;101656.38;4969280;28;20018;-69
2021/08/20 00:35:51;;;;;;;21.50;11.43;;;;;;;14.22;90.20;101662.63;4971026;28;20033;-69
2021/08/20 00:38:16;;;;;;;19.45;11.45;;;;;;;14.18;90.35;101653.94;4969825;28;20431;-69
2021/08/20 00:40:42;;;;;;;18.10;10.52;;;;;;;14.17;90.27;101655.69;4969634;28;20034;-71
2021/08/20 00:43:07;;;;;;;21.30;11.40;;;;;;;14.15;90.30;101659.31;4969068;28;20062;-69
2021/08/20 00:45:34;;;;;;;24.10;10.88;;;;;;;14.14;90.80;101654.94;4970950;28;20464;-69
2021/08/20 00:47:59;;;;;;;21.35;10.77;;;;;;;14.20;90.94;101658.25;4970145;28;20035;-68
2021/08/20 00:50:25;;;;;;;22.65;11.98;;;;;;;14.24;91.17;101661.63;4970543;28;20026;-69
2021/08/20 00:52:50;;;;;;;21.75;10.23;;;;;;;14.28;91.49;101659.75;4970235;28;20366;-68
2021/08/20 00:55:15;;;;;;;20.52;11.48;;;;;;;14.28;91.73;101652.69;4970227;28;20026;-69
2021/08/20 00:57:44;;;;;;;20.55;12.18;;;;;;;14.31;91.64;101644.69;4970152;28;20033;-72
2021/08/20 01:00:10;;;;;;;21.83;11.60;;;;;;;14.33;91.82;101645.47;4970131;28;20061;-70
2021/08/20 01:02:35;;;;;;;20.45;11.15;;;;;;;14.34;91.41;101644.56;4970349;28;20054;-71
2021/08/20 01:05:00;;;;;;;19.45;11.80;;;;;;;14.33;91.73;101648.09;4969030;28;20113;-69
2021/08/20 01:07:26;;;;;;;25.20;12.57;;;;;;;14.37;92.00;101640.94;4970511;28;20053;-70
2021/08/20 01:09:51;;;;;;;22.75;12.93;;;;;;;14.40;92.12;101640.84;4969949;28;20043;-69
2021/08/20 01:12:16;;;;;;;25.02;11.32;;;;;;;14.43;92.39;101650.44;4970384;28;20464;-69
2021/08/20 01:14:42;;;;;;;23.42;11.70;;;;;;;14.48;92.61;101643.19;4970303;28;20526;-70
2021/08/20 01:17:09;;;;;;;24.90;11.38;;;;;;;14.53;92.31;101641.25;4982014;28;20664;-68
2021/08/20 01:19:36;;;;;;;20.45;11.07;;;;;;;14.58;91.86;101636.66;4986912;28;20321;-70
2021/08/20 01:22:05;;;;;;;20.73;11.68;;;;;;;14.63;92.06;101641.78;4969651;28;20042;-70
2021/08/20 01:24:30;;;;;;;22.60;11.15;;;;;;;14.67;91.68;101641.66;4977927;28;20034;-71
2021/08/20 01:26:56;;;;;;;23.05;11.35;;;;;;;14.69;91.53;101637.16;4975701;28;20692;-68
2021/08/20 01:29:23;;;;;;;24.05;11.43;;;;;;;14.69;91.24;101637.16;4978006;28;20034;-70
2021/08/20 01:31:49;;;;;;;20.42;11.57;;;;;;;14.69;91.11;101645.06;4989024;28;20507;-68
2021/08/20 01:34:15;;;;;;;22.98;11.50;;;;;;;14.73;91.47;101647.59;4967763;28;20106;-69
2021/08/20 01:36:40;;;;;;;19.15;11.20;;;;;;;14.75;91.28;101646.63;4981282;28;20403;-68
2021/08/20 01:39:06;;;;;;;18.40;11.25;;;;;;;14.78;91.44;101641.22;4987329;28;20014;-69
2021/08/20 01:41:32;;;;;;;19.52;12.07;;;;;;;14.80;91.07;101643.81;4970732;28;20081;-70
2021/08/20 01:43:59;;;;;;;23.17;11.23;;;;;;;14.84;91.43;101642.78;4985212;28;20030;-69
2021/08/20 01:46:25;;;;;;;24.05;11.68;;;;;;;14.87;91.04;101644.44;4989883;28;20034;-69
2021/08/20 01:48:52;;;;;;;20.80;11.25;;;;;;;14.88;90.94;101636.44;4991409;28;20026;-71
2021/08/20 01:51:19;;;;;;;18.65;11.32;;;;;;;14.89;90.99;101638.19;4988898;28;20058;-71
2021/08/20 01:53:46;;;;;;;22.75;12.18;;;;;;;14.88;91.10;101641.72;4985149;28;20026;-69
2021/08/20 01:56:13;;;;;;;21.38;12.20;;;;;;;14.86;91.12;101633.03;5008353;28;20443;-69
2021/08/20 01:58:40;;;;;;;22.23;12.15;;;;;;;14.86;91.05;101633.03;4978586;28;20054;-70
2021/08/20 02:01:05;;;;;;;18.98;12.52;;;;;;;14.84;90.78;101632.22;4973311;28;20035;-68
2021/08/20 02:03:30;;;;;;;19.73;12.27;;;;;;;14.82;91.26;101631.41;4973255;28;20538;-67
2021/08/20 02:05:55;;;;;;;19.50;12.65;;;;;;;14.82;91.37;101634.91;4975592;28;20057;-67
2021/08/20 02:08:21;;;;;;;21.15;13.07;;;;;;;14.84;91.08;101634.84;4974257;28;20027;-70
2021/08/20 02:10:46;;;;;;;23.67;13.23;;;;;;;14.87;91.60;101637.38;4973984;28;20026;-68
2021/08/20 02:13:11;;;;;;;19.73;12.80;;;;;;;14.88;91.75;101632.97;4972321;28;20104;-69
2021/08/20 02:15:37;;;;;;;26.52;13.65;;;;;;;14.89;91.85;101637.31;4974582;28;20385;-71
2021/08/20 02:18:02;;;;;;;25.75;13.95;;;;;;;14.91;91.95;101638.09;4975990;28;20034;-68
2021/08/20 02:20:28;;;;;;;19.85;12.15;;;;;;;14.91;92.10;101641.63;4980266;28;20070;-70
2021/08/20 02:22:53;;;;;;;22.92;13.60;;;;;;;14.93;92.23;101649.50;4973201;28;20026;-69
2021/08/20 02:25:18;;;;;;;24.75;13.57;;;;;;;14.92;92.24;101653.91;4973771;28;20149;-70
2021/08/20 02:27:44;;;;;;;25.02;12.75;;;;;;;14.90;92.71;101642.53;4973799;28;20023;-71
2021/08/20 02:30:10;;;;;;;20.30;13.05;;;;;;;14.90;92.21;101645.19;4972169;28;20094;-68
2021/08/20 02:32:35;;;;;;;23.27;13.95;;;;;;;14.91;92.92;101641.63;4972608;28;20027;-68
2021/08/20 02:35:01;;;;;;;25.30;13.95;;;;;;;14.94;92.62;101640.66;4973297;28;20030;-69
2021/08/20 02:37:26;;;;;;;26.40;13.63;;;;;;;14.95;93.23;101635.31;4972609;28;20052;-68
2021/08/20 02:39:51;;;;;;;22.23;13.57;;;;;;;14.93;92.71;101639.78;4973091;28;20023;-69
2021/08/20 02:42:16;;;;;;;23.08;12.48;;;;;;;14.92;92.98;101632.78;4971411;28;20027;-70
2021/08/20 02:44:42;;;;;;;29.17;14.57;;;;;;;14.89;92.70;101632.91;4972983;28;20500;-67
2021/08/20 02:47:07;;;;;;;28.05;13.43;;;;;;;14.85;92.78;101631.31;4972071;28;20030;-68
2021/08/20 02:49:32;;;;;;;32.95;15.80;;;;;;;14.89;93.19;101632.91;4973009;28;20023;-69
2021/08/20 02:51:58;;;;;;;26.58;13.65;;;;;;;14.93;93.81;101636.28;4972580;28;20034;-69
2021/08/20 02:54:23;;;;;;;26.92;14.13;;;;;;;14.96;93.32;101634.38;4972683;28;20377;-70
2021/08/20 02:56:48;;;;;;;25.98;14.02;;;;;;;15.01;93.78;101628.94;4972991;28;20627;-69
2021/08/20 02:59:14;;;;;;;31.77;14.10;;;;;;;15.07;93.88;101628.69;4972238;28;20046;-69
2021/08/20 03:01:39;;;;;;;25.60;13.38;;;;;;;15.09;93.75;101620.69;4972686;28;20030;-68
2021/08/20 03:04:04;;;;;;;25.30;14.23;;;;;;;15.09;93.47;101620.69;4970689;28;20022;-68
2021/08/20 03:06:30;;;;;;;25.65;13.40;;;;;;;15.09;93.34;101608.34;4971575;28;20081;-69
2021/08/20 03:08:56;;;;;;;26.05;13.90;;;;;;;15.06;93.52;101611.13;4976174;28;20038;-68
2021/08/20 03:11:22;;;;;;;28.63;14.40;;;;;;;14.99;93.16;101607.84;4984109;28;20019;-67
2021/08/20 03:13:48;;;;;;;30.13;14.52;;;;;;;14.96;93.50;101615.03;4981021;28;20108;-68
2021/08/20 03:16:13;;;;;;;25.90;13.90;;;;;;;14.96;93.49;101620.34;4982330;28;20011;-67
2021/08/20 03:18:39;;;;;;;28.83;14.15;;;;;;;14.96;93.86;101615.03;4976918;28;20121;-68
2021/08/20 03:21:05;;;;;;;28.67;14.45;;;;;;;14.95;93.62;101621.25;4982218;28;20029;-70
2021/08/20 03:23:30;;;;;;;30.02;15.23;;;;;;;14.96;93.45;101620.34;4973899;28;20023;-68
2021/08/20 03:25:55;;;;;;;36.28;16.27;;;;;;;14.94;93.51;101620.38;4974368;28;20072;-68
2021/08/20 03:28:21;;;;;;;30.23;15.35;;;;;;;14.89;93.82;101622.31;4981437;28;20027;-71
2021/08/20 03:30:46;;;;;;;33.30;16.35;;;;;;;14.88;93.45;101623.25;4986353;28;20023;-67
2021/08/20 03:33:12;;;;;;;34.22;17.10;;;;;;;14.88;94.01;101620.59;4975385;28;20154;-72
2021/08/20 03:35:37;;;;;;;33.58;16.10;;;;;;;14.87;94.13;101618.03;4972017;28;20037;-69
2021/08/20 03:38:03;;;;;;;36.35;17.40;;;;;;;14.84;94.38;101625.13;4987207;28;20023;-68
2021/08/20 03:40:28;;;;;;;30.88;16.10;;;;;;;14.88;94.41;101617.97;4975289;28;20033;-68
2021/08/20 03:42:54;;;;;;;35.47;18.00;;;;;;;14.94;94.53;101628.28;4972011;28;20435;-67
2021/08/20 03:45:20;;;;;;;40.25;17.00;;;;;;;15.03;94.58;101627.06;4972028;28;20089;-68
2021/08/20 03:47:45;;;;;;;33.53;16.88;;;;;;;15.06;94.50;101624.31;4971925;28;20023;-69
2021/08/20 03:50:10;;;;;;;30.50;16.55;;;;;;;15.10;94.09;101627.72;4970198;28;20027;-71
2021/08/20 03:52:36;;;;;;;28.75;14.50;;;;;;;15.05;94.39;101621.75;4971856;28;20042;-69
2021/08/20 03:55:02;;;;;;;34.30;17.13;;;;;;;15.03;94.01;101626.22;4971866;28;20182;-70
2021/08/20 03:57:27;;;;;;;29.25;15.77;;;;;;;15.06;93.88;101632.25;4970474;28;20035;-68
2021/08/20 03:59:52;;;;;;;32.70;16.98;;;;;;;15.01;94.00;101619.22;4971668;28;20015;-68
2021/08/20 04:02:17;;;;;;;27.88;16.13;;;;;;;14.94;94.05;101623.00;4971723;28;20073;-68
2021/08/20 04:04:43;;;;;;;35.83;17.00;;;;;;;14.89;93.88;101630.25;4971316;28;20019;-69
2021/08/20 04:07:08;;;;;;;28.15;15.02;;;;;;;14.84;93.87;101642.78;4970248;28;20050;-69
2021/08/20 04:09:33;;;;;;;29.80;16.25;;;;;;;14.79;94.44;101639.47;4969921;28;20110;-71
2021/08/20 04:11:59;;;;;;;33.13;17.50;;;;;;;14.74;94.24;101634.34;4969040;28;20037;-68
2021/08/20 04:14:24;;;;;;;39.83;18.13;;;;;;;14.76;94.93;101632.50;4971159;28;20018;-70
2021/08/20 04:16:49;;;;;;;44.15;19.23;;;;;;;14.79;94.73;101642.09;4969297;28;20026;-69
2021/08/20 04:19:15;;;;;;;33.08;17.85;;;;;;;14.77;95.32;101638.63;4970583;28;20026;-69
2021/08/20 04:21:40;;;;;;;50.05;19.95;;;;;;;14.77;95.04;101638.63;4970695;28;20054;-70
2021/08/20 04:24:08;;;;;;;41.83;19.58;;;;;;;14.76;95.28;101635.16;4985854;28;20035;-69
2021/08/20 04:26:33;;;;;;;39.03;17.95;;;;;;;14.71;95.20;101641.50;4970662;28;20058;-69
2021/08/20 04:28:59;;;;;;;43.42;18.85;;;;;;;14.69;95.58;101642.44;4970554;28;20639;-69
2021/08/20 04:31:24;;;;;;;47.10;19.13;;;;;;;14.65;95.50;101647.91;4970590;28;20046;-69
2021/08/20 04:33:49;;;;;;;43.40;19.40;;;;;;;14.67;95.42;101648.69;4970110;28;20031;-71
2021/08/20 04:36:15;;;;;;;44.78;18.98;;;;;;;14.67;95.69;101652.19;4970421;28;20027;-70
2021/08/20 04:38:40;;;;;;;43.58;19.30;;;;;;;14.67;95.75;101660.13;4970251;28;20618;-70
2021/08/20 04:41:07;;;;;;;41.50;18.98;;;;;;;14.71;95.73;101655.59;4970907;28;20499;-70
2021/08/20 04:43:34;;;;;;;40.72;18.30;;;;;;;14.75;96.07;101651.03;4970442;28;20047;-72
2021/08/20 04:46:00;;;;;;;40.58;17.75;;;;;;;14.82;96.51;101657.81;4970508;28;20527;-68
2021/08/20 04:48:25;;;;;;;38.60;18.00;;;;;;;14.88;96.62;101662.84;4970297;28;20027;-68
2021/08/20 04:50:52;;;;;;;43.60;18.52;;;;;;;14.93;96.80;101670.63;4969032;28;20023;-68
2021/08/20 04:53:18;;;;;;;37.05;16.70;;;;;;;14.98;97.01;101672.19;4970429;28;20027;-70
2021/08/20 04:55:44;;;;;;;38.75;17.42;;;;;;;15.05;96.76;101669.31;4969543;28;20084;-69
2021/08/20 04:58:09;;;;;;;40.45;16.38;;;;;;;15.14;96.70;101674.22;4956592;28;20113;-69
2021/08/20 05:00:34;;;;;;;37.88;15.68;;;;;;;15.17;97.38;101667.03;4970564;28;20022;-69
2021/08/20 05:02:59;;;;;;;38.58;16.63;;;;;;;15.21;97.38;101670.41;4970061;28;20073;-69
2021/08/20 05:05:27;;;;;;;34.00;14.63;;;;;;;15.20;97.00;101668.69;4969459;28;20427;-68
2021/08/20 05:07:52;;;;;;;37.47;13.73;;;;;;;15.21;96.73;101664.25;4968527;28;20022;-68
2021/08/20 05:10:18;;;;;;;26.85;13.38;;;;;;;15.22;97.13;101672.16;4969434;28;20435;-69
2021/08/20 05:12:43;;;;;;;27.42;13.13;;;;;;;15.23;96.50;101671.22;4970168;28;20125;-69
2021/08/20 05:15:09;;;;;;;25.73;12.57;;;;;;;15.22;96.63;101677.44;4970154;28;20496;-67
2021/08/20 05:17:34;;;;;;;25.08;12.40;;;;;;;15.27;96.65;101675.47;4985407;28;20109;-71
2021/08/20 05:19:59;;;;;;;24.13;11.60;;;;;;;15.29;96.43;101684.22;4969894;28;20491;-72
2021/08/20 05:22:25;;;;;;;22.52;10.85;;;;;;;15.34;96.44;101684.00;4970280;28;20018;-67
2021/08/20 05:24:50;;;;;;;28.35;11.13;;;;;;;15.39;96.67;101679.38;4970039;28;20046;-68
2021/08/20 05:27:16;;;;;;;20.48;10.57;;;;;;;15.40;96.67;101686.41;4970274;28;20033;-69
2021/08/20 05:29:42;;;;;;;22.27;10.25;;;;;;;15.41;96.58;101682.84;4974634;28;20134;-68
2021/08/20 05:32:07;;;;;;;24.55;10.40;;;;;;;15.47;96.32;101689.69;4972051;28;20022;-68
2021/08/20 05:34:32;;;;;;;18.35;9.05;;;;;;;15.59;96.24;101694.47;4983539;28;20105;-68
2021/08/20 05:36:58;;;;;;;20.65;9.20;;;;;;;15.68;96.62;101695.00;4983178;28;20459;-68
2021/08/20 05:39:25;;;;;;;17.92;8.18;;;;;;;15.75;95.81;101701.78;4975832;28;20015;-69
2021/08/20 05:41:50;;;;;;;16.60;8.10;;;;;;;15.76;95.94;101701.69;4978487;28;20042;-68
2021/08/20 05:44:15;;;;;;;18.80;9.18;;;;;;;15.80;95.71;101710.38;4977091;28;20045;-69
2021/08/20 05:46:41;;;;;;;17.00;7.32;;;;;;;15.88;96.04;101700.38;4995882;28;20034;-70
2021/08/20 05:49:07;;;;;;;17.27;7.35;;;;;;;15.94;95.77;101701.91;4980536;28;20376;-69
2021/08/20 05:51:33;;;;;;;16.65;7.78;;;;;;;15.96;95.75;101698.28;4982663;28;20435;-70
2021/08/20 05:53:58;;;;;;;19.92;7.80;;;;;;;16.03;95.23;101695.38;4974394;28;20035;-69
2021/08/20 05:56:24;;;;;;;13.35;6.88;;;;;;;16.10;95.05;101702.09;4975423;28;20415;-69
2021/08/20 05:58:51;;;;;;;12.00;6.88;;;;;;;16.13;94.35;101697.56;4983153;28;20028;-70
2021/08/20 06:01:17;;;;;;;16.70;6.53;;;;;;;16.13;94.03;101696.69;4969086;28;20492;-69
2021/08/20 06:03:42;;;;;;;11.82;5.60;;;;;;;16.14;93.85;101701.91;4980684;28;20030;-69
2021/08/20 06:06:14;;;;;;;11.57;5.38;;;;;;;16.18;93.69;101705.28;4971343;28;20023;-67
2021/08/20 06:08:40;;;;;;;13.05;5.45;;;;;;;16.27;93.70;101704.91;4985175;28;20480;-70
2021/08/20 06:11:05;;;;;;;12.32;5.18;;;;;;;16.35;93.70;101701.94;4973057;28;20134;-68
2021/08/20 06:13:31;;;;;;;12.05;5.45;;;;;;;16.51;93.07;101711.84;4985007;28;20030;-69
2021/08/20 06:15:56;;;;;;;10.50;4.63;;;;;;;16.61;92.58;101708.72;4970060;28;20114;-68
2021/08/20 06:18:21;;;;;;;12.13;3.97;;;;;;;16.78;91.52;101701.81;4969203;28;20082;-68
2021/08/20 06:20:47;;;;;;;11.90;4.65;;;;;;;16.91;91.07;101707.41;4969412;28;20102;-70
2021/08/20 06:23:12;;;;;;;7.97;3.85;;;;;;;17.09;90.17;101713.66;4968803;28;20101;-70
2021/08/20 06:25:37;;;;;;;9.85;4.07;;;;;;;17.19;89.14;101707.03;4968682;28;20027;-69
2021/08/20 06:28:03;;;;;;;11.20;4.05;;;;;;;17.30;88.68;101716.25;4970145;28;20034;-68
2021/08/20 06:30:28;;;;;;;11.40;4.03;;;;;;;17.36;88.68;101710.66;4969991;28;20090;-69
2021/08/20 06:32:53;;;;;;;9.75;3.78;;;;;;;17.50;88.93;101713.53;4967836;28;20034;-69
2021/08/20 06:35:19;;;;;;;10.90;3.97;;;;;;;17.58;87.60;101714.00;4972337;28;20109;-69
2021/08/20 06:37:44;;;;;;;11.60;3.78;;;;;;;17.72;86.68;101707.16;4972341;28;20037;-70
2021/08/20 06:40:10;;;;;;;8.13;3.22;;;;;;;17.80;85.91;101720.03;4973613;28;20054;-70
2021/08/20 06:42:36;;;;;;;9.07;3.58;;;;;;;17.84;85.33;101716.31;4973388;28;20103;-70
2021/08/20 06:45:01;;;;;;;9.85;3.80;;;;;;;17.86;85.32;101720.63;4972383;28;20027;-70
2021/08/20 06:47:26;;;;;;;9.50;3.75;;;;;;;17.85;85.77;101721.53;4985310;28;20027;-69
2021/08/20 06:49:52;;;;;;;8.40;4.28;;;;;;;17.82;85.80;101724.34;4982305;28;20475;-68
2021/08/20 06:52:17;;;;;;;14.05;5.72;;;;;;;17.80;85.90;101722.69;4974026;28;20022;-69
2021/08/20 06:54:42;;;;;;;9.88;5.13;;;;;;;17.86;85.24;101717.97;4987416;28;20029;-68
2021/08/20 06:57:08;;;;;;;14.18;7.10;;;;;;;17.90;85.47;101721.31;4978745;28;20034;-69
2021/08/20 06:59:33;;;;;;;13.45;6.28;;;;;;;18.11;84.50;101721.19;4986731;28;20018;-70
2021/08/20 07:01:59;;;;;;;10.20;5.70;;;;;;;18.28;83.74;101728.31;4970848;28;20096;-70
2021/08/20 07:04:24;;;;;;;12.40;6.95;;;;;;;18.30;82.85;101729.09;4971216;28;20678;-68
2021/08/20 07:06:49;;;;;;;10.38;6.65;;;;;;;18.15;82.74;101742.22;4971678;28;20022;-70
2021/08/20 07:09:15;;;;;;;12.40;6.45;;;;;;;18.10;84.18;101738.94;4979931;28;20038;-69
2021/08/20 07:11:40;;;;;;;13.35;7.10;;;;;;;18.01;83.84;101744.69;4982008;28;20077;-69
2021/08/20 07:14:05;;;;;;;16.30;7.75;;;;;;;17.96;84.71;101744.06;4971419;28;20082;-68
2021/08/20 07:16:30;;;;;;;13.18;7.32;;;;;;;18.01;84.01;101731.41;4970693;28;20157;-68
2021/08/20 07:18:56;;;;;;;11.13;6.22;;;;;;;18.10;84.22;101728.31;4971275;28;20110;-68
2021/08/20 07:21:21;;;;;;;17.40;7.35;;;;;;;18.22;83.63;101729.47;4971502;28;20144;-68
2021/08/20 07:23:46;;;;;;;12.10;6.30;;;;;;;18.43;82.56;101732.84;4971599;28;20027;-69
2021/08/20 07:26:13;;;;;;;15.85;6.75;;;;;;;18.63;81.78;101730.91;4970996;28;20034;-69
2021/08/20 07:28:40;;;;;;;13.82;6.75;;;;;;;18.48;81.50;101738.78;4979697;28;20018;-68
2021/08/20 07:31:05;;;;;;;18.05;7.80;;;;;;;18.45;81.47;101733.59;4978421;28;20447;-68
2021/08/20 07:33:30;;;;;;;17.00;6.15;;;;;;;18.46;82.06;101734.47;4973721;28;20031;-68
2021/08/20 07:35:56;;;;;;;15.63;6.57;;;;;;;18.57;81.42;101739.22;4972016;28;20038;-68
2021/08/20 07:38:21;;;;;;;12.65;6.30;;;;;;;18.59;81.58;101742.66;4976398;28;20131;-68
2021/08/20 07:40:47;;;;;;;13.80;6.53;;;;;;;18.59;81.58;101743.50;4987076;28;20046;-67
2021/08/20 07:43:12;;;;;;;14.90;6.30;;;;;;;18.54;81.21;101735.78;4979801;28;20547;-68
2021/08/20 07:45:37;;;;;;;15.15;5.75;;;;;;;18.49;81.83;101739.63;4971208;28;20030;-70
2021/08/20 07:48:03;;;;;;;16.95;6.80;;;;;;;18.32;81.63;101744.00;4971086;28;20034;-68
2021/08/20 07:50:28;;;;;;;14.82;6.78;;;;;;;18.29;82.26;101741.50;4969971;28;20054;-68
2021/08/20 07:52:54;;;;;;;17.13;6.45;;;;;;;18.21;82.65;101739.25;4971506;28;20110;-69
2021/08/20 07:55:19;;;;;;;16.05;6.47;;;;;;;18.27;82.74;101743.41;4969035;28;20035;-68
2021/08/20 07:57:51;;;;;;;15.10;6.55;;;;;;;18.55;81.77;101748.13;4968294;28;20070;-69
2021/08/20 08:00:22;;;;;;;10.73;5.70;;;;;;;19.01;80.46;101741.34;4964100;28;20027;-68
2021/08/20 08:02:48;;;;;;;12.55;5.80;;;;;;;19.45;79.44;101746.00;4950104;28;20520;-68
2021/08/20 08:05:14;;;;;;;11.82;5.57;;;;;;;20.18;76.43;101759.66;4952902;28;20030;-69
2021/08/20 08:07:39;;;;;;;14.43;5.72;;;;;;;20.67;73.13;101747.88;4964369;28;20027;-69
2021/08/20 08:10:05;;;;;;;10.18;5.18;;;;;;;20.58;72.66;101751.97;4985516;28;20440;-68
2021/08/20 08:12:30;;;;;;;13.20;5.60;;;;;;;20.60;72.40;101755.38;4971534;28;20372;-69
2021/08/20 08:14:56;;;;;;;11.98;4.60;;;;;;;21.29;69.36;101759.09;4986399;28;20023;-72
2021/08/20 08:17:21;;;;;;;13.45;4.80;;;;;;;21.78;66.38;101764.94;4971416;28;20027;-69
2021/08/20 08:19:46;;;;;;;12.18;4.78;;;;;;;21.50;68.17;101756.00;4971874;28;20050;-69
2021/08/20 08:22:12;;;;;;;12.70;5.47;;;;;;;21.41;68.31;101757.47;4971300;28;20499;-69
2021/08/20 08:24:37;;;;;;;12.23;5.95;;;;;;;21.24;68.48;101755.88;4968295;28;20035;-69
2021/08/20 08:27:03;;;;;;;9.43;4.65;;;;;;;22.57;65.67;101762.31;4951219;28;20023;-69
2021/08/20 08:29:28;;;;;;;16.83;6.00;;;;;;;22.79;62.38;101764.34;4968633;28;20476;-69
2021/08/20 08:31:54;;;;;;;17.20;5.07;;;;;;;22.52;64.36;101753.78;4959063;28;20058;-71
2021/08/20 08:34:19;;;;;;;12.35;5.22;;;;;;;22.15;65.78;101767.78;4951294;28;20500;-69
2021/08/20 08:36:44;;;;;;;12.10;4.28;;;;;;;22.28;64.46;101761.59;4966692;28;20023;-70
2021/08/20 08:39:10;;;;;;;11.00;4.65;;;;;;;21.65;66.14;101769.34;4952837;28;20052;-68
2021/08/20 08:41:35;;;;;;;9.65;4.00;;;;;;;21.33;66.66;101774.91;4975018;28;20102;-68
2021/08/20 08:44:01;;;;;;;13.15;3.47;;;;;;;21.88;64.68;101768.69;4971193;28;20035;-69
2021/08/20 08:46:27;;;;;;;12.10;3.58;;;;;;;21.57;64.68;101772.50;4971268;28;20073;-68
2021/08/20 08:48:52;;;;;;;14.13;3.83;;;;;;;21.33;66.98;101769.59;4985294;28;20134;-69
2021/08/20 08:51:19;;;;;;;10.35;3.42;;;;;;;20.91;67.35;101775.72;4971328;28;20524;-67
2021/08/20 08:53:45;;;;;;;11.10;3.42;;;;;;;20.88;67.45;101775.03;4971167;28;20519;-68
2021/08/20 08:56:10;;;;;;;9.27;3.17;;;;;;;21.37;66.11;101771.97;4971346;28;20031;-68
2021/08/20 08:58:37;;;;;;;8.85;3.50;;;;;;;21.54;65.13;101772.69;4970296;28;20030;-69
2021/08/20 09:01:26;;;;;;;8.43;3.47;;;;;;;21.09;66.20;101771.03;4971057;28;20039;-68
2021/08/20 09:04:14;;;;;;;9.85;3.28;;;;;;;20.73;67.92;101772.38;4985454;28;20420;-70
2021/08/20 09:06:47;;;;;;;10.32;2.85;;;;;;;22.22;64.17;101778.94;4985871;28;20526;-70
2021/08/20 09:09:17;;;;;;;7.35;2.63;;;;;;;24.18;58.22;101773.03;4985293;28;20102;-71
2021/08/20 09:11:43;;;;;;;7.55;2.60;;;;;;;25.08;53.53;101771.50;4970801;28;20089;-68
2021/08/20 09:14:10;;;;;;;9.00;2.20;;;;;;;23.73;55.23;101774.66;4970342;28;20027;-68
2021/08/20 09:16:40;;;;;;;7.35;2.42;;;;;;;22.61;58.53;101774.50;4964943;28;20027;-69
2021/08/20 09:19:08;;;;;;;6.05;2.25;;;;;;;21.77;61.25;101773.88;4978767;28;20154;-69
2021/08/20 09:21:34;;;;;;;10.52;3.22;;;;;;;21.24;64.10;101779.88;4974765;28;20065;-70
2021/08/20 09:23:59;;;;;;;9.70;3.17;;;;;;;20.82;66.11;101788.75;4958523;28;20054;-68
2021/08/20 09:26:24;;;;;;;8.43;3.63;;;;;;;20.83;66.98;101785.13;4960686;28;20034;-69
2021/08/20 09:28:50;;;;;;;10.93;3.67;;;;;;;21.11;66.10;101774.47;4960921;28;20035;-69
2021/08/20 09:31:15;;;;;;;10.93;4.57;;;;;;;21.65;65.09;101778.19;4976912;28;20102;-69
2021/08/20 09:33:43;;;;;;;8.27;3.80;;;;;;;23.35;60.58;101784.53;4958383;28;20063;-69
2021/08/20 09:36:20;;;;;;;9.00;3.97;;;;;;;25.08;54.42;101771.50;4965742;28;20038;-70
2021/08/20 09:38:55;;;;;;;9.70;3.92;;;;;;;26.49;49.61;101778.75;4966238;28;20027;-69
2021/08/20 09:41:27;;;;;;;9.48;3.88;;;;;;;27.09;49.48;101779.91;4976166;28;20023;-69
2021/08/20 09:44:02;;;;;;;8.75;3.70;;;;;;;27.87;47.13;101777.38;4975550;28;20030;-69
2021/08/20 09:46:39;;;;;;;7.32;3.25;;;;;;;28.69;44.35;101780.63;4958397;28;20095;-69
2021/08/20 09:49:05;;;;;;;10.48;3.45;;;;;;;28.37;44.55;101791.72;4973610;28;20024;-69
2021/08/20 09:51:30;;;;;;;13.73;4.78;;;;;;;27.84;45.71;101783.06;4975797;28;20034;-69
2021/08/20 09:54:03;;;;;;;7.17;3.77;;;;;;;27.21;47.71;101776.13;4953127;28;20066;-70
2021/08/20 09:56:29;;;;;;;9.90;3.45;;;;;;;26.12;51.08;101781.88;4950632;28;20400;-69
2021/08/20 09:58:57;;;;;;;10.30;4.18;;;;;;;25.30;51.21;101781.38;4950425;28;20015;-70
2021/08/20 10:01:23;;;;;;;12.40;4.45;;;;;;;24.24;55.20;101784.28;4950194;28;20073;-70
2021/08/20 10:03:50;;;;;;;11.10;4.68;;;;;;;23.63;57.57;101788.72;4965561;28;20468;-68
2021/08/20 10:06:15;;;;;;;11.13;3.40;;;;;;;22.73;59.64;101791.53;4950637;28;20052;-69
2021/08/20 10:08:41;;;;;;;9.88;3.55;;;;;;;22.47;61.19;101801.34;4965985;28;20094;-67
2021/08/20 10:11:07;;;;;;;9.73;3.30;;;;;;;22.36;61.52;101792.22;4969118;28;20094;-69
2021/08/20 10:13:32;;;;;;;8.95;3.30;;;;;;;22.57;61.10;101789.06;4954323;28;20024;-70
2021/08/20 10:16:02;;;;;;;8.10;3.05;;;;;;;22.62;60.89;101789.59;4954540;28;20086;-70
2021/08/20 10:18:30;;;;;;;10.32;3.78;;;;;;;22.69;61.32;101806.09;4967637;28;20034;-69
2021/08/20 10:20:55;;;;;;;9.45;3.55;;;;;;;22.48;61.84;101801.25;4953835;28;20023;-69
2021/08/20 10:23:20;;;;;;;10.20;3.20;;;;;;;22.30;62.32;101803.34;4954450;28;20606;-68
2021/08/20 10:25:46;;;;;;;12.05;3.60;;;;;;;22.00;63.63;101801.72;4969168;28;20035;-69
2021/08/20 10:28:13;;;;;;;9.57;4.05;;;;;;;21.93;63.34;101805.78;4968318;28;20114;-68
2021/08/20 10:30:38;;;;;;;9.70;4.55;;;;;;;22.11;63.16;101802.84;4954288;28;20031;-68
2021/08/20 10:33:06;;;;;;;7.55;3.72;;;;;;;21.92;63.40;101812.06;4968570;28;20475;-68
2021/08/20 10:35:53;;;;;;;6.57;3.70;;;;;;;21.47;63.58;101808.72;4954252;28;20100;-68
2021/08/20 10:38:40;;;;;;;9.98;3.30;;;;;;;21.13;65.06;101814.38;4953717;28;20027;-68
2021/08/20 10:41:09;;;;;;;12.25;3.80;;;;;;;20.72;67.08;101815.97;4954179;28;20532;-69
2021/08/20 10:44:05;;;;;;;8.75;3.80;;;;;;;20.46;67.19;101825.47;4968465;28;20031;-69
2021/08/20 10:46:30;;;;;;;8.85;3.67;;;;;;;20.26;68.66;101824.00;4953860;29;20390;-69
2021/08/20 10:49:20;;;;;;;8.90;4.10;;;;;;;20.08;69.63;101831.25;4953513;28;20150;-69
2021/08/20 10:54:24;;;;;;;10.40;4.15;;;;;;;20.35;69.86;101823.44;4972326;28;20543;-69
2021/08/20 10:56:49;;;;;;;9.77;3.80;;;;;;;20.78;67.92;101820.91;4972535;28;20031;-70
2021/08/20 10:59:36;;;;;;;11.50;3.90;;;;;;;21.16;65.48;101821.31;4971108;28;20034;-68
2021/08/20 11:02:19;;;;;;;9.63;3.60;;;;;;;21.44;65.17;101821.28;4970993;28;20631;-70
2021/08/20 11:05:10;;;;;;;7.47;3.85;;;;;;;21.72;63.73;101818.72;4971185;28;20106;-69
2021/08/20 11:07:38;;;;;;;7.80;3.25;;;;;;;21.63;63.87;101820.16;4970869;28;20030;-69
2021/08/20 11:10:09;;;;;;;8.43;3.53;;;;;;;21.60;63.82;101817.69;4970839;28;20035;-69
2021/08/20 11:12:46;;;;;;;10.35;3.90;;;;;;;21.38;64.76;101821.69;4970493;28;20472;-69
2021/08/20 11:15:18;;;;;;;12.63;4.88;;;;;;;21.22;65.79;101819.16;4972257;28;20023;-69